createdAt,value
2019-02-12T00:00:18.736Z,989.73
2019-02-12T00:01:18.756Z,989.76
2019-02-12T00:02:18.746Z,989.70
2019-02-12T00:03:18.698Z,989.71
2019-02-12T00:04:18.787Z,989.70
2019-02-12T00:05:18.689Z,989.68
2019-02-12T00:06:18.688Z,989.71
2019-02-12T00:07:18.669Z,989.85
2019-02-12T00:08:18.810Z,989.86
2019-02-12T00:09:18.653Z,989.90
2019-02-12T00:10:18.693Z,989.96
2019-02-12T00:11:18.640Z,989.96
2019-02-12T00:12:18.621Z,989.95
2019-02-12T00:13:18.601Z,989.91
2019-02-12T00:14:18.651Z,990.03
2019-02-12T00:15:18.572Z,989.96
2019-02-12T00:16:18.642Z,989.99
2019-02-12T00:17:18.665Z,989.99
2019-02-12T00:18:18.545Z,990.07
2019-02-12T00:19:18.593Z,990.08
2019-02-12T00:20:19.395Z,990.22
2019-02-12T00:21:18.575Z,990.20
2019-02-12T00:22:18.485Z,990.20
2019-02-12T00:23:18.565Z,990.20
2019-02-12T00:24:18.476Z,990.24
2019-02-12T00:25:18.507Z,990.25
2019-02-12T00:26:18.457Z,990.29
2019-02-12T00:27:18.538Z,990.26
2019-02-12T00:28:18.417Z,990.31
2019-02-12T00:29:18.482Z,990.39
2019-02-12T00:30:18.438Z,990.41
2019-02-12T00:31:18.396Z,990.36
2019-02-12T00:32:18.479Z,990.31
2019-02-12T00:33:19.390Z,990.27
2019-02-12T00:34:18.385Z,990.24
2019-02-12T00:35:19.400Z,990.22
2019-02-12T00:36:18.341Z,990.26
2019-02-12T00:37:19.343Z,990.18
2019-02-12T00:38:18.303Z,990.07
2019-02-12T00:39:18.890Z,990.05
2019-02-12T00:40:18.323Z,989.99
2019-02-12T00:41:18.283Z,989.99
2019-02-12T00:42:19.284Z,990.04
2019-02-12T00:43:18.238Z,990.02
2019-02-12T00:44:18.245Z,990.06
2019-02-12T00:45:18.237Z,990.15
2019-02-12T00:46:19.305Z,990.25
2019-02-12T00:47:18.206Z,990.23
2019-02-12T00:48:18.266Z,990.23
2019-02-12T00:49:18.354Z,990.25
2019-02-12T00:50:18.185Z,990.17
2019-02-12T00:51:18.200Z,990.19
2019-02-12T00:52:18.240Z,990.20
2019-02-12T00:53:18.148Z,990.25
2019-02-12T00:54:18.178Z,990.23
2019-02-12T00:55:18.146Z,990.30
2019-02-12T00:56:18.121Z,990.31
2019-02-12T00:57:18.182Z,990.28
2019-02-12T00:58:18.081Z,990.23
2019-02-12T00:59:18.110Z,990.13
2019-02-12T01:00:18.061Z,990.23
2019-02-12T01:01:18.101Z,990.18
2019-02-12T01:02:18.011Z,990.20
2019-02-12T01:03:18.092Z,990.21
2019-02-12T01:04:18.015Z,990.21
2019-02-12T01:05:18.024Z,990.19
2019-02-12T01:06:17.993Z,990.19
2019-02-12T01:07:19.084Z,990.21
2019-02-12T01:08:17.964Z,990.29
2019-02-12T01:09:17.995Z,990.33
2019-02-12T01:10:17.934Z,990.38
2019-02-12T01:11:17.935Z,990.33
2019-02-12T01:12:17.915Z,990.38
2019-02-12T01:13:24.518Z,990.40
2019-02-12T01:14:17.886Z,990.36
2019-02-12T01:15:17.896Z,990.30
2019-02-12T01:16:17.890Z,990.30
2019-02-12T01:17:17.857Z,990.32
2019-02-12T01:18:17.907Z,990.32
2019-02-12T01:19:17.838Z,990.35
2019-02-12T01:20:17.838Z,990.38
2019-02-12T01:21:25.889Z,990.42
2019-02-12T01:22:18.899Z,990.49
2019-02-12T01:23:17.789Z,990.54
2019-02-12T01:24:17.810Z,990.54
2019-02-12T01:25:17.776Z,990.57
2019-02-12T01:26:17.800Z,990.56
2019-02-12T01:27:17.821Z,990.59
2019-02-12T01:28:17.741Z,990.66
2019-02-12T01:29:18.782Z,990.66
2019-02-12T01:30:17.713Z,990.77
2019-02-12T01:31:17.733Z,990.73
2019-02-12T01:32:17.693Z,990.79
2019-02-12T01:33:17.686Z,990.70
2019-02-12T01:34:17.694Z,990.73
2019-02-12T01:35:17.654Z,990.74
2019-02-12T01:36:17.686Z,990.75
2019-02-12T01:37:17.638Z,990.69
2019-02-12T01:38:17.625Z,990.69
2019-02-12T01:39:17.617Z,990.67
2019-02-12T01:40:17.696Z,990.68
2019-02-12T01:41:17.607Z,990.62
2019-02-12T01:42:17.637Z,990.70
2019-02-12T01:43:17.608Z,990.65
2019-02-12T01:44:17.539Z,990.74
2019-02-12T01:45:17.638Z,990.70
2019-02-12T01:46:17.552Z,990.61
2019-02-12T01:47:17.569Z,990.66
2019-02-12T01:48:17.509Z,990.68
2019-02-12T01:49:17.510Z,990.53
2019-02-12T01:50:17.491Z,990.64
2019-02-12T01:51:17.590Z,990.59
2019-02-12T01:52:17.452Z,990.50
2019-02-12T01:53:17.481Z,990.55
2019-02-12T01:54:17.434Z,990.49
2019-02-12T01:55:17.516Z,990.55
2019-02-12T01:56:17.422Z,990.55
2019-02-12T01:57:17.453Z,990.62
2019-02-12T01:58:17.383Z,990.50
2019-02-12T01:59:17.374Z,990.50
2019-02-12T02:00:17.365Z,990.52
2019-02-12T02:01:17.464Z,990.62
2019-02-12T02:02:17.340Z,990.58
2019-02-12T02:03:17.357Z,990.60
2019-02-12T02:04:17.319Z,990.65
2019-02-12T02:05:17.401Z,990.61
2019-02-12T02:06:17.307Z,990.67
2019-02-12T02:07:20.558Z,990.69
2019-02-12T02:08:17.268Z,990.65
2019-02-12T02:09:18.297Z,990.66
2019-02-12T02:10:17.250Z,990.63
2019-02-12T02:11:17.308Z,990.61
2019-02-12T02:12:17.249Z,990.62
2019-02-12T02:13:17.239Z,990.68
2019-02-12T02:14:17.209Z,990.68
2019-02-12T02:15:17.200Z,990.64
2019-02-12T02:16:17.191Z,990.62
2019-02-12T02:17:17.261Z,990.68
2019-02-12T02:18:17.172Z,990.69
2019-02-12T02:19:18.171Z,990.66
2019-02-12T02:20:17.223Z,990.59
2019-02-12T02:21:17.132Z,990.59
2019-02-12T02:22:17.192Z,990.58
2019-02-12T02:23:17.114Z,990.60
2019-02-12T02:24:17.193Z,990.65
2019-02-12T02:25:17.083Z,990.65
2019-02-12T02:26:19.174Z,990.72
2019-02-12T02:27:17.074Z,990.76
2019-02-12T02:28:17.165Z,990.76
2019-02-12T02:29:17.045Z,990.76
2019-02-12T02:30:17.099Z,990.74
2019-02-12T02:31:17.016Z,990.75
2019-02-12T02:32:17.086Z,990.72
2019-02-12T02:33:16.986Z,990.74
2019-02-12T02:34:17.067Z,990.79
2019-02-12T02:35:16.982Z,990.82
2019-02-12T02:36:16.947Z,990.84
2019-02-12T02:37:17.018Z,990.79
2019-02-12T02:38:16.943Z,990.83
2019-02-12T02:39:17.001Z,990.89
2019-02-12T02:40:16.915Z,990.88
2019-02-12T02:41:16.889Z,990.85
2019-02-12T02:42:16.907Z,990.86
2019-02-12T02:43:16.971Z,990.91
2019-02-12T02:44:16.862Z,990.86
2019-02-12T02:45:17.935Z,990.82
2019-02-12T02:46:16.834Z,990.89
2019-02-12T02:47:16.843Z,990.87
2019-02-12T02:48:16.912Z,990.89
2019-02-12T02:49:16.802Z,990.92
2019-02-12T02:50:16.863Z,990.98
2019-02-12T02:51:16.783Z,990.96
2019-02-12T02:52:16.795Z,991.01
2019-02-12T02:53:16.755Z,990.96
2019-02-12T02:54:16.825Z,990.96
2019-02-12T02:55:16.746Z,990.96
2019-02-12T02:56:16.770Z,990.94
2019-02-12T02:57:16.777Z,990.93
2019-02-12T02:58:16.707Z,990.90
2019-02-12T02:59:16.768Z,990.84
2019-02-12T03:00:16.766Z,990.83
2019-02-12T03:01:17.729Z,990.83
2019-02-12T03:02:16.678Z,990.86
2019-02-12T03:03:16.739Z,990.90
2019-02-12T03:04:16.640Z,990.88
2019-02-12T03:05:16.680Z,990.88
2019-02-12T03:06:16.620Z,990.86
2019-02-12T03:07:16.662Z,990.87
2019-02-12T03:08:16.592Z,990.86
2019-02-12T03:09:16.640Z,990.88
2019-02-12T03:10:16.572Z,990.89
2019-02-12T03:11:16.582Z,990.95
2019-02-12T03:12:16.562Z,990.94
2019-02-12T03:13:16.532Z,990.99
2019-02-12T03:14:16.513Z,990.96
2019-02-12T03:15:16.552Z,991.07
2019-02-12T03:16:16.509Z,991.09
2019-02-12T03:17:16.533Z,991.12
2019-02-12T03:18:16.474Z,991.13
2019-02-12T03:19:16.525Z,991.16
2019-02-12T03:20:16.446Z,991.22
2019-02-12T03:21:16.456Z,991.14
2019-02-12T03:22:16.440Z,991.17
2019-02-12T03:23:16.498Z,991.19
2019-02-12T03:24:16.456Z,991.14
2019-02-12T03:25:16.396Z,991.17
2019-02-12T03:26:16.397Z,991.11
2019-02-12T03:27:16.392Z,991.12
2019-02-12T03:28:16.427Z,991.10
2019-02-12T03:29:16.399Z,991.12
2019-02-12T03:30:16.340Z,991.13
2019-02-12T03:31:16.440Z,991.13
2019-02-12T03:32:16.346Z,991.08
2019-02-12T03:33:18.432Z,991.11
2019-02-12T03:34:16.305Z,991.13
2019-02-12T03:35:16.310Z,991.16
2019-02-12T03:36:16.282Z,991.15
2019-02-12T03:37:16.401Z,991.13
2019-02-12T03:38:16.253Z,991.19
2019-02-12T03:39:17.312Z,991.18
2019-02-12T03:40:16.237Z,991.24
2019-02-12T03:41:16.323Z,991.23
2019-02-12T03:42:16.229Z,991.19
2019-02-12T03:43:16.267Z,991.23
2019-02-12T03:44:16.184Z,991.27
2019-02-12T03:45:16.180Z,991.31
2019-02-12T03:46:16.165Z,991.39
2019-02-12T03:47:16.276Z,991.44
2019-02-12T03:48:16.136Z,991.45
2019-02-12T03:49:16.155Z,991.47
2019-02-12T03:50:16.116Z,991.49
2019-02-12T03:51:17.117Z,991.46
2019-02-12T03:52:16.107Z,991.51
2019-02-12T03:53:16.137Z,991.58
2019-02-12T03:54:16.067Z,991.53
2019-02-12T03:55:16.069Z,991.58
2019-02-12T03:56:16.038Z,991.57
2019-02-12T03:57:16.148Z,991.59
2019-02-12T03:58:16.019Z,991.59
2019-02-12T03:59:16.042Z,991.63
2019-02-12T04:00:15.999Z,991.60
2019-02-12T04:01:15.982Z,991.68
2019-02-12T04:02:15.985Z,991.62
2019-02-12T04:03:16.011Z,991.55
2019-02-12T04:04:15.951Z,991.68
2019-02-12T04:05:16.041Z,991.63
2019-02-12T04:06:15.913Z,991.69
2019-02-12T04:07:16.022Z,991.67
2019-02-12T04:08:15.902Z,991.66
2019-02-12T04:09:15.913Z,991.65
2019-02-12T04:10:15.884Z,991.64
2019-02-12T04:11:15.955Z,991.69
2019-02-12T04:12:15.868Z,991.70
2019-02-12T04:13:15.936Z,991.70
2019-02-12T04:14:15.835Z,991.71
2019-02-12T04:15:15.926Z,991.71
2019-02-12T04:16:15.830Z,991.76
2019-02-12T04:17:15.807Z,991.64
2019-02-12T04:18:15.820Z,991.64
2019-02-12T04:19:15.797Z,991.69
2019-02-12T04:20:15.784Z,991.73
2019-02-12T04:21:15.838Z,991.68
2019-02-12T04:22:22.185Z,991.72
2019-02-12T04:23:16.759Z,991.74
2019-02-12T04:24:15.839Z,991.80
2019-02-12T04:25:15.731Z,991.74
2019-02-12T04:26:15.781Z,991.73
2019-02-12T04:27:15.726Z,991.68
2019-02-12T04:28:15.761Z,991.67
2019-02-12T04:29:15.671Z,991.72
2019-02-12T04:30:15.741Z,991.69
2019-02-12T04:31:15.652Z,991.66
2019-02-12T04:32:16.708Z,991.67
2019-02-12T04:33:15.643Z,991.62
2019-02-12T04:34:17.665Z,991.66
2019-02-12T04:35:15.603Z,991.66
2019-02-12T04:36:15.655Z,991.64
2019-02-12T04:37:15.584Z,991.65
2019-02-12T04:38:15.574Z,991.65
2019-02-12T04:39:15.555Z,991.70
2019-02-12T04:40:16.645Z,991.74
2019-02-12T04:41:15.527Z,991.72
2019-02-12T04:42:15.555Z,991.67
2019-02-12T04:43:15.520Z,991.70
2019-02-12T04:44:15.600Z,991.73
2019-02-12T04:45:15.478Z,991.69
2019-02-12T04:46:15.527Z,991.68
2019-02-12T04:47:15.460Z,991.71
2019-02-12T04:48:15.509Z,991.72
2019-02-12T04:49:15.438Z,991.65
2019-02-12T04:50:15.502Z,991.67
2019-02-12T04:51:15.410Z,991.63
2019-02-12T04:52:16.469Z,991.64
2019-02-12T04:53:15.400Z,991.66
2019-02-12T04:54:15.379Z,991.62
2019-02-12T04:55:15.371Z,991.63
2019-02-12T04:56:16.444Z,991.66
2019-02-12T04:57:15.345Z,991.67
2019-02-12T04:58:16.421Z,991.65
2019-02-12T04:59:15.333Z,991.63
2019-02-12T05:00:15.391Z,991.61
2019-02-12T05:01:15.313Z,991.61
2019-02-12T05:02:15.325Z,991.59
2019-02-12T05:03:15.307Z,991.61
2019-02-12T05:04:15.362Z,991.54
2019-02-12T05:05:15.265Z,991.56
2019-02-12T05:06:16.315Z,991.56
2019-02-12T05:07:15.245Z,991.54
2019-02-12T05:08:15.276Z,991.56
2019-02-12T05:09:15.216Z,991.56
2019-02-12T05:10:15.207Z,991.58
2019-02-12T05:11:15.197Z,991.55
2019-02-12T05:12:15.308Z,991.55
2019-02-12T05:13:15.193Z,991.61
2019-02-12T05:14:15.244Z,991.55
2019-02-12T05:15:15.199Z,991.61
2019-02-12T05:16:15.138Z,991.56
2019-02-12T05:17:23.020Z,991.60
2019-02-12T05:18:15.134Z,991.64
2019-02-12T05:19:15.171Z,991.67
2019-02-12T05:20:15.091Z,991.61
2019-02-12T05:21:15.071Z,991.58
2019-02-12T05:22:15.170Z,991.61
2019-02-12T05:23:15.071Z,991.56
2019-02-12T05:24:15.112Z,991.56
2019-02-12T05:25:15.032Z,991.53
2019-02-12T05:26:15.022Z,991.56
2019-02-12T05:27:15.113Z,991.48
2019-02-12T05:28:15.013Z,991.47
2019-02-12T05:29:15.044Z,991.49
2019-02-12T05:30:14.974Z,991.41
2019-02-12T05:31:14.974Z,991.40
2019-02-12T05:32:14.947Z,991.37
2019-02-12T05:33:15.088Z,991.41
2019-02-12T05:34:14.925Z,991.43
2019-02-12T05:35:14.954Z,991.43
2019-02-12T05:36:14.916Z,991.37
2019-02-12T05:37:14.988Z,991.38
2019-02-12T05:38:14.897Z,991.42
2019-02-12T05:39:14.932Z,991.41
2019-02-12T05:40:14.873Z,991.45
2019-02-12T05:41:14.968Z,991.46
2019-02-12T05:42:14.877Z,991.34
2019-02-12T05:43:14.959Z,991.49
2019-02-12T05:44:14.819Z,991.47
2019-02-12T05:45:14.842Z,991.45
2019-02-12T05:46:14.817Z,991.46
2019-02-12T05:47:14.798Z,991.45
2019-02-12T05:48:14.891Z,991.43
2019-02-12T05:49:14.761Z,991.45
2019-02-12T05:50:14.783Z,991.54
2019-02-12T05:51:14.743Z,991.52
2019-02-12T05:52:14.735Z,991.57
2019-02-12T05:53:14.835Z,991.60
2019-02-12T05:54:14.713Z,991.55
2019-02-12T05:55:14.713Z,991.57
2019-02-12T05:56:14.685Z,991.60
2019-02-12T05:57:14.674Z,991.60
2019-02-12T05:58:14.684Z,991.58
2019-02-12T05:59:14.689Z,991.62
2019-02-12T06:00:14.656Z,991.68
2019-02-12T06:01:15.649Z,991.65
2019-02-12T06:02:14.608Z,991.71
2019-02-12T06:03:15.726Z,991.69
2019-02-12T06:04:14.600Z,991.72
2019-02-12T06:05:14.699Z,991.71
2019-02-12T06:06:16.964Z,991.65
2019-02-12T06:07:14.627Z,991.70
2019-02-12T06:08:15.668Z,991.69
2019-02-12T06:09:14.538Z,991.73
2019-02-12T06:10:14.639Z,991.74
2019-02-12T06:11:14.512Z,991.76
2019-02-12T06:12:15.590Z,991.75
2019-02-12T06:13:14.587Z,991.68
2019-02-12T06:14:14.471Z,991.78
2019-02-12T06:15:14.578Z,991.73
2019-02-12T06:16:14.463Z,991.74
2019-02-12T06:17:14.513Z,991.75
2019-02-12T06:18:14.462Z,991.75
2019-02-12T06:19:14.432Z,991.75
2019-02-12T06:20:14.523Z,991.77
2019-02-12T06:21:14.402Z,991.81
2019-02-12T06:22:14.454Z,991.82
2019-02-12T06:23:14.383Z,991.84
2019-02-12T06:24:14.384Z,991.85
2019-02-12T06:25:14.356Z,991.90
2019-02-12T06:26:14.427Z,991.91
2019-02-12T06:27:14.336Z,991.82
2019-02-12T06:28:14.356Z,991.84
2019-02-12T06:29:14.376Z,991.78
2019-02-12T06:30:14.307Z,991.79
2019-02-12T06:31:14.367Z,991.86
2019-02-12T06:32:14.280Z,991.82
2019-02-12T06:33:14.299Z,991.82
2019-02-12T06:34:14.268Z,991.87
2019-02-12T06:35:14.273Z,991.88
2019-02-12T06:36:15.329Z,991.90
2019-02-12T06:37:14.219Z,991.87
2019-02-12T06:38:15.259Z,991.93
2019-02-12T06:39:14.211Z,991.94
2019-02-12T06:40:14.280Z,991.91
2019-02-12T06:41:15.373Z,991.91
2019-02-12T06:42:14.155Z,991.96
2019-02-12T06:43:14.174Z,991.94
2019-02-12T06:44:14.155Z,991.95
2019-02-12T06:45:14.134Z,991.95
2019-02-12T06:46:14.116Z,992.05
2019-02-12T06:47:14.144Z,992.04
2019-02-12T06:48:14.093Z,992.10
2019-02-12T06:49:15.133Z,992.09
2019-02-12T06:50:15.225Z,992.19
2019-02-12T06:51:14.062Z,992.18
2019-02-12T06:52:14.205Z,992.23
2019-02-12T06:53:14.035Z,992.22
2019-02-12T06:54:15.085Z,992.24
2019-02-12T06:55:14.006Z,992.25
2019-02-12T06:56:14.056Z,992.27
2019-02-12T06:57:14.014Z,992.29
2019-02-12T06:58:14.187Z,992.33
2019-02-12T06:59:13.967Z,992.35
2019-02-12T07:00:14.040Z,992.34
2019-02-12T07:01:13.949Z,992.34
2019-02-12T07:02:13.969Z,992.34
2019-02-12T07:03:14.246Z,992.45
2019-02-12T07:04:13.959Z,992.43
2019-02-12T07:05:13.920Z,992.45
2019-02-12T07:06:13.890Z,992.42
2019-02-12T07:07:14.931Z,992.48
2019-02-12T07:08:13.872Z,992.46
2019-02-12T07:09:14.125Z,992.47
2019-02-12T07:10:13.857Z,992.50
2019-02-12T07:11:13.844Z,992.61
2019-02-12T07:12:14.872Z,992.61
2019-02-12T07:13:13.803Z,992.61
2019-02-12T07:14:14.866Z,992.71
2019-02-12T07:15:13.842Z,992.72
2019-02-12T07:16:13.787Z,992.71
2019-02-12T07:17:13.795Z,992.68
2019-02-12T07:18:13.755Z,992.70
2019-02-12T07:19:14.796Z,992.73
2019-02-12T07:20:13.772Z,992.75
2019-02-12T07:21:13.800Z,992.81
2019-02-12T07:22:13.725Z,992.78
2019-02-12T07:23:21.218Z,992.83
2019-02-12T07:24:14.707Z,992.78
2019-02-12T07:25:13.738Z,992.81
2019-02-12T07:26:13.658Z,992.81
2019-02-12T07:27:13.672Z,992.80
2019-02-12T07:28:13.639Z,992.82
2019-02-12T07:29:13.749Z,992.79
2019-02-12T07:30:13.613Z,992.76
2019-02-12T07:31:13.641Z,992.76
2019-02-12T07:32:13.595Z,992.76
2019-02-12T07:33:13.720Z,992.76
2019-02-12T07:34:13.601Z,992.79
2019-02-12T07:35:13.622Z,992.80
2019-02-12T07:36:13.544Z,992.80
2019-02-12T07:37:13.590Z,992.82
2019-02-12T07:38:13.646Z,992.84
2019-02-12T07:39:13.523Z,992.86
2019-02-12T07:40:13.553Z,992.88
2019-02-12T07:41:19.854Z,992.85
2019-02-12T07:42:14.495Z,992.89
2019-02-12T07:43:13.644Z,992.88
2019-02-12T07:44:13.586Z,992.92
2019-02-12T07:45:13.456Z,992.88
2019-02-12T07:46:13.466Z,992.92
2019-02-12T07:47:13.533Z,992.92
2019-02-12T07:48:13.419Z,992.92
2019-02-12T07:49:13.517Z,992.98
2019-02-12T07:50:13.528Z,993.03
2019-02-12T07:51:14.428Z,993.04
2019-02-12T07:52:13.373Z,993.00
2019-02-12T07:53:13.438Z,993.06
2019-02-12T07:54:13.372Z,993.02
2019-02-12T07:55:13.369Z,993.04
2019-02-12T07:56:13.330Z,993.10
2019-02-12T07:57:14.340Z,993.11
2019-02-12T07:58:13.325Z,993.08
2019-02-12T07:59:14.421Z,993.16
2019-02-12T08:00:13.311Z,993.09
2019-02-12T08:01:13.399Z,993.15
2019-02-12T08:02:13.267Z,993.11
2019-02-12T08:03:13.241Z,993.18
2019-02-12T08:04:13.355Z,993.13
2019-02-12T08:05:13.213Z,993.17
2019-02-12T08:06:13.324Z,993.21
2019-02-12T08:07:13.183Z,993.19
2019-02-12T08:08:13.195Z,993.18
2019-02-12T08:09:13.205Z,993.21
2019-02-12T08:10:15.239Z,993.20
2019-02-12T08:11:13.146Z,993.22
2019-02-12T08:12:15.169Z,993.23
2019-02-12T08:13:13.117Z,993.23
2019-02-12T08:14:13.207Z,993.27
2019-02-12T08:15:13.107Z,993.25
2019-02-12T08:16:13.198Z,993.29
2019-02-12T08:17:13.071Z,993.24
2019-02-12T08:18:14.159Z,993.32
2019-02-12T08:19:13.092Z,993.31
2019-02-12T08:20:13.073Z,993.34
2019-02-12T08:21:13.049Z,993.31
2019-02-12T08:22:14.262Z,993.32
2019-02-12T08:23:13.021Z,993.32
2019-02-12T08:24:13.025Z,993.30
2019-02-12T08:25:13.002Z,993.32
2019-02-12T08:26:13.081Z,993.32
2019-02-12T08:27:12.987Z,993.37
2019-02-12T08:28:13.013Z,993.34
2019-02-12T08:29:12.956Z,993.42
2019-02-12T08:30:12.954Z,993.44
2019-02-12T08:31:13.023Z,993.45
2019-02-12T08:32:12.951Z,993.46
2019-02-12T08:33:13.974Z,993.48
2019-02-12T08:34:12.895Z,993.46
2019-02-12T08:35:12.905Z,993.50
2019-02-12T08:36:12.955Z,993.55
2019-02-12T08:37:12.865Z,993.49
2019-02-12T08:38:13.916Z,993.47
2019-02-12T08:39:12.848Z,993.49
2019-02-12T08:40:13.897Z,993.54
2019-02-12T08:41:12.827Z,993.53
2019-02-12T08:42:12.869Z,993.54
2019-02-12T08:43:12.788Z,993.52
2019-02-12T08:44:13.822Z,993.59
2019-02-12T08:45:12.780Z,993.61
2019-02-12T08:46:12.750Z,993.61
2019-02-12T08:47:12.745Z,993.58
2019-02-12T08:48:12.798Z,993.62
2019-02-12T08:49:12.726Z,993.61
2019-02-12T08:50:12.750Z,993.63
2019-02-12T08:51:12.691Z,993.60
2019-02-12T08:52:12.770Z,993.67
2019-02-12T08:53:12.674Z,993.70
2019-02-12T08:54:13.758Z,993.71
2019-02-12T08:55:12.662Z,993.73
2019-02-12T08:56:13.734Z,993.74
2019-02-12T08:57:13.713Z,993.82
2019-02-12T08:58:12.620Z,993.79
2019-02-12T08:59:12.725Z,993.75
2019-02-12T09:00:12.604Z,993.80
2019-02-12T09:01:12.663Z,993.80
2019-02-12T09:02:12.575Z,993.81
2019-02-12T09:03:12.566Z,993.78
2019-02-12T09:04:13.586Z,993.86
2019-02-12T09:05:12.578Z,993.88
2019-02-12T09:06:12.601Z,993.87
2019-02-12T09:07:12.527Z,993.83
2019-02-12T09:08:12.512Z,993.91
2019-02-12T09:09:12.599Z,993.89
2019-02-12T09:10:12.487Z,993.93
2019-02-12T09:11:12.590Z,993.91
2019-02-12T09:12:12.455Z,994.00
2019-02-12T09:13:13.483Z,993.97
2019-02-12T09:14:12.440Z,994.01
2019-02-12T09:15:12.511Z,994.05
2019-02-12T09:16:12.465Z,994.02
2019-02-12T09:17:12.454Z,994.00
2019-02-12T09:18:12.401Z,994.05
2019-02-12T09:19:12.395Z,994.04
2019-02-12T09:20:12.444Z,994.04
2019-02-12T09:21:12.383Z,994.03
2019-02-12T09:22:12.384Z,994.07
2019-02-12T09:23:12.343Z,994.09
2019-02-12T09:24:12.335Z,994.05
2019-02-12T09:25:12.306Z,994.08
2019-02-12T09:26:12.407Z,994.06
2019-02-12T09:27:12.275Z,994.08
2019-02-12T09:28:12.385Z,994.07
2019-02-12T09:29:12.276Z,994.10
2019-02-12T09:30:12.266Z,994.06
2019-02-12T09:31:13.360Z,994.06
2019-02-12T09:32:12.228Z,994.08
2019-02-12T09:33:12.328Z,994.13
2019-02-12T09:34:12.209Z,994.03
2019-02-12T09:35:12.204Z,994.11
2019-02-12T09:36:12.299Z,994.09
2019-02-12T09:37:12.171Z,994.06
2019-02-12T09:38:12.309Z,994.02
2019-02-12T09:39:12.152Z,994.06
2019-02-12T09:40:18.826Z,994.02
2019-02-12T09:41:13.187Z,994.07
2019-02-12T09:42:14.191Z,994.05
2019-02-12T09:43:12.102Z,994.09
2019-02-12T09:44:13.018Z,994.10
2019-02-12T09:45:12.092Z,994.11
2019-02-12T09:46:12.092Z,994.08
2019-02-12T09:47:12.183Z,994.05
2019-02-12T09:48:12.054Z,994.06
2019-02-12T09:49:12.123Z,994.06
2019-02-12T09:50:12.034Z,994.10
2019-02-12T09:51:12.034Z,994.11
2019-02-12T09:52:12.126Z,994.08
2019-02-12T09:53:12.005Z,994.13
2019-02-12T09:54:12.055Z,994.13
2019-02-12T09:55:11.976Z,994.07
2019-02-12T09:56:11.977Z,994.16
2019-02-12T09:57:11.976Z,994.16
2019-02-12T09:58:12.028Z,994.21
2019-02-12T09:59:11.927Z,994.20
2019-02-12T10:00:11.968Z,994.22
2019-02-12T10:01:11.918Z,994.17
2019-02-12T10:02:18.549Z,994.16
2019-02-12T10:03:11.889Z,994.24
2019-02-12T10:04:11.929Z,994.22
2019-02-12T10:05:11.860Z,994.23
2019-02-12T10:06:21.280Z,994.26
2019-02-12T10:07:14.911Z,994.31
2019-02-12T10:08:11.821Z,994.30
2019-02-12T10:09:13.922Z,994.33
2019-02-12T10:10:11.812Z,994.34
2019-02-12T10:11:12.872Z,994.31
2019-02-12T10:12:11.869Z,994.33
2019-02-12T10:13:11.763Z,994.36
2019-02-12T10:14:11.813Z,994.34
2019-02-12T10:15:11.733Z,994.40
2019-02-12T10:16:11.816Z,994.36
2019-02-12T10:17:11.714Z,994.38
2019-02-12T10:18:11.705Z,994.38
2019-02-12T10:19:11.745Z,994.36
2019-02-12T10:20:11.798Z,994.37
2019-02-12T10:21:12.756Z,994.36
2019-02-12T10:22:11.656Z,994.35
2019-02-12T10:23:11.647Z,994.36
2019-02-12T10:24:19.234Z,994.35
2019-02-12T10:25:12.617Z,994.39
2019-02-12T10:26:11.657Z,994.33
2019-02-12T10:27:11.608Z,994.34
2019-02-12T10:28:11.589Z,994.34
2019-02-12T10:29:11.582Z,994.33
2019-02-12T10:30:11.599Z,994.38
2019-02-12T10:31:11.561Z,994.37
2019-02-12T10:32:11.580Z,994.38
2019-02-12T10:33:11.530Z,994.42
2019-02-12T10:34:11.534Z,994.41
2019-02-12T10:35:11.543Z,994.35
2019-02-12T10:36:11.508Z,994.39
2019-02-12T10:37:11.522Z,994.37
2019-02-12T10:39:11.478Z,994.36
2019-02-12T10:40:11.466Z,994.42
2019-02-12T10:41:11.551Z,994.48
2019-02-12T10:42:11.435Z,994.49
2019-02-12T10:43:13.535Z,994.42
2019-02-12T10:44:11.429Z,994.40
2019-02-12T10:45:11.405Z,994.47
2019-02-12T10:46:12.406Z,994.51
2019-02-12T10:47:11.396Z,994.48
2019-02-12T10:48:12.547Z,994.56
2019-02-12T10:49:11.359Z,994.58
2019-02-12T10:50:11.348Z,994.60
2019-02-12T10:51:11.338Z,994.56
2019-02-12T10:52:12.363Z,994.58
2019-02-12T10:53:11.302Z,994.61
2019-02-12T10:54:13.481Z,994.69
2019-02-12T10:55:11.280Z,994.63
2019-02-12T10:56:11.271Z,994.65
2019-02-12T10:57:11.380Z,994.65
2019-02-12T10:58:11.241Z,994.63
2019-02-12T10:59:14.412Z,994.63
2019-02-12T11:00:11.222Z,994.58
2019-02-12T11:01:11.213Z,994.62
2019-02-12T11:02:11.213Z,994.64
2019-02-12T11:03:11.246Z,994.62
2019-02-12T11:04:11.174Z,994.61
2019-02-12T11:05:12.195Z,994.58
2019-02-12T11:06:11.165Z,994.61
2019-02-12T11:07:11.255Z,994.62
2019-02-12T11:08:11.125Z,994.58
2019-02-12T11:09:11.147Z,994.52
2019-02-12T11:10:11.119Z,994.58
2019-02-12T11:11:11.187Z,994.57
2019-02-12T11:12:11.207Z,994.53
2019-02-12T11:13:11.076Z,994.58
2019-02-12T11:14:11.087Z,994.60
2019-02-12T11:15:11.058Z,994.56
2019-02-12T11:16:11.128Z,994.47
2019-02-12T11:17:11.050Z,994.53
2019-02-12T11:18:11.067Z,994.55
2019-02-12T11:19:11.010Z,994.55
2019-02-12T11:20:11.100Z,994.50
2019-02-12T11:21:12.150Z,994.58
2019-02-12T11:22:11.092Z,994.56
2019-02-12T11:23:11.092Z,994.58
2019-02-12T11:24:10.952Z,994.61
2019-02-12T11:25:11.042Z,994.65
2019-02-12T11:26:10.932Z,994.62
2019-02-12T11:27:11.023Z,994.62
2019-02-12T11:28:10.914Z,994.70
2019-02-12T11:29:10.904Z,994.64
2019-02-12T11:30:10.868Z,994.65
2019-02-12T11:31:11.965Z,994.71
2019-02-12T11:32:10.876Z,994.71
2019-02-12T11:33:12.046Z,994.82
2019-02-12T11:34:10.947Z,994.80
2019-02-12T11:35:10.827Z,994.82
2019-02-12T11:36:10.878Z,994.89
2019-02-12T11:37:10.808Z,994.81
2019-02-12T11:38:10.817Z,994.86
2019-02-12T11:39:10.778Z,994.82
2019-02-12T11:40:10.859Z,994.82
2019-02-12T11:41:10.750Z,994.73
2019-02-12T11:42:10.820Z,994.71
2019-02-12T11:43:10.729Z,994.73
2019-02-12T11:44:18.601Z,994.70
2019-02-12T11:45:10.704Z,994.74
2019-02-12T11:46:10.761Z,994.70
2019-02-12T11:47:10.692Z,994.68
2019-02-12T11:48:10.691Z,994.69
2019-02-12T11:49:10.662Z,994.68
2019-02-12T11:50:10.657Z,994.69
2019-02-12T11:51:10.634Z,994.66
2019-02-12T11:52:10.713Z,994.73
2019-02-12T11:53:10.628Z,994.72
2019-02-12T11:54:10.705Z,994.72
2019-02-12T11:55:10.584Z,994.80
2019-02-12T11:56:10.584Z,994.83
2019-02-12T11:57:10.645Z,994.80
2019-02-12T11:58:10.531Z,994.83
2019-02-12T11:59:10.657Z,994.74
2019-02-12T12:00:10.536Z,994.80
2019-02-12T12:01:10.518Z,994.78
2019-02-12T12:02:10.537Z,994.75
2019-02-12T12:03:10.518Z,994.77
2019-02-12T12:04:10.498Z,994.78
2019-02-12T12:05:10.559Z,994.75
2019-02-12T12:06:10.469Z,994.71
2019-02-12T12:07:10.469Z,994.69
2019-02-12T12:08:10.559Z,994.72
2019-02-12T12:09:10.441Z,994.73
2019-02-12T12:10:10.502Z,994.68
2019-02-12T12:11:10.412Z,994.75
2019-02-12T12:12:10.410Z,994.74
2019-02-12T12:13:10.403Z,994.78
2019-02-12T12:14:10.475Z,994.77
2019-02-12T12:15:10.374Z,994.86
2019-02-12T12:16:11.217Z,994.86
2019-02-12T12:17:10.366Z,994.93
2019-02-12T12:18:10.335Z,994.93
2019-02-12T12:19:10.407Z,994.86
2019-02-12T12:20:10.314Z,994.90
2019-02-12T12:21:10.346Z,994.86
2019-02-12T12:22:10.288Z,994.88
2019-02-12T12:23:10.264Z,994.85
2019-02-12T12:24:10.257Z,994.84
2019-02-12T12:25:10.336Z,994.91
2019-02-12T12:26:10.237Z,994.86
2019-02-12T12:27:10.287Z,994.87
2019-02-12T12:28:10.218Z,994.91
2019-02-12T12:29:10.278Z,994.88